ハワイでヤッホイ

LUXURY FLIGHT

03-6423-7371

羽田本店:東京都大田区羽田5-11-1
営業時間:10:00~20:00
定休日:毎週 月曜日
セントレア店:愛知県常滑市セントレア1-1
営業時間:10:00~20:00 年中無休

lv

ハワイでヤッホイ

STAFF BLOG

2019/05/09 ハワイでヤッホイ

モーニンモーニン グッモーニン

 

本日の羽田

RJTT 090000Z 20017KT 9999 FEW030 BKN160 21/06 Q1009 NOSIG RMK 1CU030 7AC160 A2980

 

風が少々強めですが、空気の匂いが完全に春です。

 

 

たまりません

 

 

さてさて、昨日は

夕暮れのハワイにて、仲良し兄弟のお兄ちゃんの方が操縦に挑戦!!

 

ナイスフライトをしてくれましたー

 

 

本来、このハワイコースは30分では時間的にかなりハードルが高く

飛行中ドタバタが予想できるのですが、

今回は60分に延長し対応させていただきました

 

 

 

img_1311

 

ご家族揃ってハワイには思い入れがあるご様子

 

お父さんは何だかローカルのサーファーみたいな雰囲気ででカッコいいです

 

夕暮れの中での着陸は、上手く距離感が掴めなかったり

見慣れないライトが光ってたりでちょっぴり大変そうでしたが、

一回ゴーアラウンドしただけでシッカリと感覚を掴んで修正ーーー

 

綺麗なランディングとなりました

 

 

パイロットの世界では「修正」について多くの見方、考え方があるとよく聞きますが、

彼の修正能力はきっとパイロットの世界でも通ずるんじゃないかなーーーー、なーんて思ってみたり。

 

是非是非、パイロットの世界を目指してみてくださーーーい

 

お父さんもハワイに行ける回数が増えて大喜びかも

 

 

この度はご来店誠にありがとうございました。

次回のご来店も心より楽しみに致しております。

 

 

「感謝」

TOP